N7IVV Remington VA US current weather conditions

sailwx.info

Wind from 074 at 1 knots gusting 1

Air temperature 6.1° C
Dewpoint 6.1° C

Last reported at 2019-Dec-14 15:49 UTC.
Time now 2019-Dec-14 16:36 UTC

Location: N 38°32' W 077°47'.
View on Google Maps.

See reports from other nearby stations

  
Tides and Currents Weather Stations Pressure Air Temp Water Temp Dewpoint Dewpoint Depression Visibility Wind Speed Wind Dir Waves Ship Positions
date/time (UTC)wind fromknots sea level pressurealtimeterstation pressurevisibilityair tempwater tempwave heightnotes
2019-Dec-14 15:49 074 1 gusting 1 6.1
2019-Dec-14 15:39 151 1 gusting 1 6.1
2019-Dec-14 15:29 174 6.1
2019-Dec-14 15:19 232 2 gusting 4 5.6
2019-Dec-14 15:09 218 2 gusting 4 5.6
2019-Dec-14 15:00 231 2 gusting 3 5.6
2019-Dec-14 14:49 272 1 gusting 3 5.6
2019-Dec-14 14:39 266 1 gusting 3 5.6
2019-Dec-14 14:29 257 2 gusting 4 5.6
2019-Dec-14 14:19 267 1 gusting 3 5.6
2019-Dec-14 14:09 251 4 gusting 4 5.6
2019-Dec-14 13:59 301 1 gusting 2 5.6
2019-Dec-14 13:49 013 0 gusting 0 5.6
2019-Dec-14 13:39 013 5.6
2019-Dec-14 13:29 013 0 gusting 1 5.6
2019-Dec-14 13:19 013 0 gusting 0 5.6
2019-Dec-14 13:09 013 2 gusting 2 5.6
2019-Dec-14 12:59 020 5.0
2019-Dec-14 12:50 278 0 gusting 1 5.0
2019-Dec-14 12:39 260 5.0
2019-Dec-14 12:29 260 0 gusting 0 5.0
2019-Dec-14 12:19 259 0 gusting 0 5.0
2019-Dec-14 12:09 259 5.0
2019-Dec-14 11:59 258 1 gusting 1 5.0
2019-Dec-14 11:49 295 0 gusting 2 5.0
2019-Dec-14 11:39 251 0 gusting 3 5.0
2019-Dec-14 11:29 290 0 gusting 0 5.0
2019-Dec-14 11:19 290 0 gusting 1 5.0
2019-Dec-14 10:59 290 5.0
2019-Dec-14 10:49 290 0 gusting 0 5.0
2019-Dec-14 10:39 290 5.0
2019-Dec-14 10:29 290 0 gusting 0 5.0
2019-Dec-14 10:19 290 0 gusting 1 5.0
2019-Dec-14 10:09 296 1 gusting 1 5.0
2019-Dec-14 09:59 297 0 gusting 0 5.0
2019-Dec-14 09:49 297 0 gusting 0 5.0
2019-Dec-14 09:39 297 5.0
2019-Dec-14 09:29 268 1 gusting 2 5.0
2019-Dec-14 09:19 285 1 gusting 1 5.0
2019-Dec-14 08:50 309 0 gusting 1 5.0
2019-Dec-14 08:39 309 0 gusting 1 5.0
2019-Dec-14 08:29 308 0 gusting 1 5.0
2019-Dec-14 08:19 305 0 gusting 2 5.0
2019-Dec-14 08:09 284 3 gusting 3 5.0
2019-Dec-14 07:59 265 1 gusting 2 5.0
2019-Dec-14 07:49 259 2 gusting 3 5.0
2019-Dec-14 07:39 295 5.0
2019-Dec-14 07:29 325 0 gusting 1 4.4
2019-Dec-14 07:19 252 0 gusting 1 4.4
2019-Dec-14 07:09 251 4.4
2019-Dec-14 06:59 251 0 gusting 0 4.4
2019-Dec-14 06:49 251 0 gusting 0 4.4
2019-Dec-14 06:39 251 0 gusting 2 4.4
2019-Dec-14 06:29 253 0 gusting 2 4.4
2019-Dec-14 06:19 253 4.4
2019-Dec-14 06:09 222 1 gusting 1 3.9
2019-Dec-14 05:59 222 1 gusting 1 3.9
2019-Dec-14 05:49 222 4.4
2019-Dec-14 05:39 222 3.9
2019-Dec-14 05:29 245 0 gusting 1 3.9
2019-Dec-14 05:19 247 2 gusting 3 3.9
2019-Dec-14 05:09 335 1 gusting 2 3.9
2019-Dec-14 04:59 350 1 gusting 1 3.3
2019-Dec-14 04:49 307 1 gusting 1 3.3
2019-Dec-14 04:39 306 0 gusting 1 3.3
2019-Dec-14 04:29 249 6 gusting 7 3.3
2019-Dec-14 04:19 335 2 gusting 2 3.3
2019-Dec-14 04:09 340 0 gusting 1 2.8
2019-Dec-14 03:59 340 0 gusting 0 2.8
2019-Dec-14 03:49 340 2.8
2019-Dec-14 03:39 340 2.8
2019-Dec-14 03:29 340 0 gusting 1 2.8
2019-Dec-14 03:19 309 0 gusting 1 2.8
2019-Dec-14 03:09 309 2.8
2019-Dec-14 02:59 326 0 gusting 1 2.8
2019-Dec-14 02:49 324 0 gusting 2 2.8
2019-Dec-14 02:39 298 2 gusting 3 2.8
2019-Dec-14 02:29 322 0 gusting 2 2.8
2019-Dec-14 02:19 349 1 gusting 2 2.2
2019-Dec-14 02:09 008 1 gusting 1 2.2
2019-Dec-14 01:59 289 3 gusting 3 2.2
2019-Dec-14 01:49 313 1 gusting 2 2.2
2019-Dec-14 01:39 296 2 gusting 5 2.2
2019-Dec-14 01:29 307 4 gusting 6 2.2
2019-Dec-14 01:19 322 2 gusting 3 2.2
2019-Dec-14 01:09 280 1 gusting 4 2.2
2019-Dec-14 00:59 278 1 gusting 5 2.2
2019-Dec-14 00:49 289 3 gusting 4 2.2
2019-Dec-14 00:39 311 3 gusting 4 2.2
2019-Dec-14 00:29 309 0 gusting 1 2.2
2019-Dec-14 00:19 292 1 gusting 2 2.8
2019-Dec-14 00:09 313 2 gusting 2 2.8
2019-Dec-13 23:59 325 2 gusting 3 2.2
2019-Dec-13 23:49 335 2 gusting 2 2.2
2019-Dec-13 23:39 021 1 gusting 2 2.2
2019-Dec-13 23:29 335 4 gusting 4 2.2
2019-Dec-13 23:19 345 3 gusting 6 2.2
2019-Dec-13 23:09 335 5 gusting 6 2.2
2019-Dec-13 22:59 350 3 gusting 4 2.2
2019-Dec-13 22:49 349 5 gusting 5 2.2
2019-Dec-13 22:39 335 3 gusting 5 2.2
2019-Dec-13 22:29 356 2 gusting 4 2.2
2019-Dec-13 22:19 351 1 gusting 3 2.2
2019-Dec-13 22:09 355 4 gusting 5 2.2
2019-Dec-13 21:59 358 4 gusting 4 2.2
2019-Dec-13 21:49 011 2 gusting 4 2.2
2019-Dec-13 21:39 016 3 gusting 4 2.2
2019-Dec-13 21:29 016 1 gusting 3 2.2
2019-Dec-13 21:19 035 3 gusting 3 2.2
2019-Dec-13 21:09 018 3 gusting 3 2.2
2019-Dec-13 20:59 021 3 gusting 5 2.2
2019-Dec-13 20:49 024 2 gusting 4 2.8
2019-Dec-13 20:39 037 3 gusting 4 2.8
2019-Dec-13 20:29 006 3 gusting 6 2.8
2019-Dec-13 20:19 022 3 gusting 4 2.8
2019-Dec-13 20:10 016 2 gusting 4 2.8
2019-Dec-13 19:59 026 2 gusting 3 2.8
2019-Dec-13 19:49 020 2 gusting 4 2.8
2019-Dec-13 19:39 356 0 gusting 2 2.8
2019-Dec-13 19:29 006 1 gusting 3 2.8
2019-Dec-13 19:19 355 1 gusting 2 2.8
2019-Dec-13 19:09 019 2 gusting 3 2.8
2019-Dec-13 18:59 027 4 gusting 4 2.8
2019-Dec-13 18:49 352 3 gusting 3 2.2
2019-Dec-13 18:39 014 1 gusting 5 2.2
2019-Dec-13 18:29 031 2 gusting 5 2.2
2019-Dec-13 18:19 021 0 gusting 2 2.2
2019-Dec-13 18:09 026 1 gusting 3 2.2
2019-Dec-13 18:00 355 0 gusting 1 2.2
2019-Dec-13 17:49 037 3 gusting 6 1.7
2019-Dec-13 17:39 345 0 gusting 2 1.7
2019-Dec-13 17:29 328 1 gusting 4 1.7
2019-Dec-13 17:19 010 1 gusting 3 1.7
2019-Dec-13 17:09 012 2 gusting 3 1.1
2019-Dec-13 16:59 020 2 gusting 3 1.1
2019-Dec-13 16:49 009 0 gusting 2 1.1
2019-Dec-13 16:39 018 0 gusting 2 1.1
2019-Dec-13 16:29 012 0 gusting 1 1.1
2019-Dec-13 16:19 023 0 gusting 1 1.1
2019-Dec-13 16:09 008 2 gusting 2 1.1
2019-Dec-13 15:59 033 0 gusting 3 0.6
2019-Dec-13 15:49 019 2 gusting 4 0.6
2019-Dec-13 15:39 015 1 gusting 2 0.6
2019-Dec-13 15:29 016 1 gusting 2 0.6
2019-Dec-13 15:19 024 2 gusting 2 0.6
2019-Dec-13 15:09 024 2 gusting 3 0.6
2019-Dec-13 14:59 028 0 gusting 1 0.6
2019-Dec-13 14:49 330 1 gusting 2 0.6
2019-Dec-13 14:39 014 1 gusting 2 0.6
2019-Dec-13 14:29 033 0 gusting 2 0.6
2019-Dec-13 14:19 340 1 gusting 1 0.6
2019-Dec-13 14:09 329 0 gusting 2 0.6
2019-Dec-13 13:59 340 0 gusting 1 -0.0
2019-Dec-13 13:49 014 0 gusting 1 -0.0
2019-Dec-13 13:39 013 -0.0
2019-Dec-13 13:29 015 1 gusting 1 -0.0
2019-Dec-13 13:19 010 1 gusting 1 -0.0
2019-Dec-13 13:09 010 0 gusting 1 -0.0
2019-Dec-13 12:59 018 0 gusting 1 -0.0
2019-Dec-13 12:49 029 2 gusting 2 -0.0
2019-Dec-13 12:39 022 0 gusting 3 0.6
2019-Dec-13 12:29 028 1 gusting 3 0.6
2019-Dec-13 12:19 016 0 gusting 1 0.6
2019-Dec-13 12:09 013 0 gusting 1 0.6
2019-Dec-13 11:59 012 0.6
2019-Dec-13 11:49 012 0 gusting 1 0.6
2019-Dec-13 11:39 012 0 gusting 0 0.6
2019-Dec-13 11:29 012 0.6
2019-Dec-13 11:19 012 0 gusting 1 0.6
2019-Dec-13 11:09 012 0 gusting 1 -0.0
2019-Dec-13 10:59 012 0 gusting 1 -0.0
2019-Dec-13 10:49 012 -0.0
2019-Dec-13 10:39 012 0 gusting 0 0.6
2019-Dec-13 10:29 012 -0.0
2019-Dec-13 10:19 012 0 gusting 0 -0.0
2019-Dec-13 10:09 012 0 gusting 1 -0.0
2019-Dec-13 09:49 307 0 gusting 0 -0.0
2019-Dec-13 09:39 289 1 gusting 1 -0.0
2019-Dec-13 09:29 303 2 gusting 2 -0.0
2019-Dec-13 09:19 331 0 gusting 1 -0.6
2019-Dec-13 09:09 293 0 gusting 1 -0.0
2019-Dec-13 08:59 315 1 gusting 1 -0.0
2019-Dec-13 08:49 289 0 gusting 1 -0.6
2019-Dec-13 08:39 306 1 gusting 1 -0.6
2019-Dec-13 08:29 306 -0.6
2019-Dec-13 08:19 352 1 gusting 1 -0.6
2019-Dec-13 08:09 029 0 gusting 1 -0.6
2019-Dec-13 07:59 253 0 gusting 1 -0.6
2019-Dec-13 07:49 253 -1.1
2019-Dec-13 07:39 226 0 gusting 1 -1.1
2019-Dec-13 07:29 226 -1.1
2019-Dec-13 07:19 226 -1.1
2019-Dec-13 07:09 226 0 gusting 0 -1.1
2019-Dec-13 06:59 226 0 gusting 0 -1.1
2019-Dec-13 06:49 226 0 gusting 0 -1.1
2019-Dec-13 06:39 226 -1.1
2019-Dec-13 06:29 226 -1.1
2019-Dec-13 06:19 226 -1.1
2019-Dec-13 06:09 226 -1.1
2019-Dec-13 05:59 124 -1.1
2019-Dec-13 05:49 112 1 gusting 1 -1.1
2019-Dec-13 05:39 110 -1.1
2019-Dec-13 05:29 110 -1.7
2019-Dec-13 05:19 110 -1.7
2019-Dec-13 05:09 110 -1.7
2019-Dec-13 04:59 110 -2.2
2019-Dec-13 04:49 110 -2.2
2019-Dec-13 04:39 110 -2.2
2019-Dec-13 04:29 110 -2.2
2019-Dec-13 04:19 110 -2.2
2019-Dec-13 04:09 110 -2.2
2019-Dec-13 03:59 110 -2.2
2019-Dec-13 03:49 110 -2.2
2019-Dec-13 03:39 110 -2.2
2019-Dec-13 03:29 110 -2.2
2019-Dec-13 03:19 110 -2.2
2019-Dec-13 03:09 110 -1.7
2019-Dec-13 02:59 110 -1.1
2019-Dec-13 02:49 110 -1.1
2019-Dec-13 02:39 110 0 gusting 1 -1.1
2019-Dec-13 02:29 097 1 gusting 1 -1.1
2019-Dec-13 02:19 097 -0.6
2019-Dec-13 02:09 097 1 gusting 2 -0.6
2019-Dec-13 01:59 108 2 gusting 2 -1.1
2019-Dec-13 01:49 108 0 gusting 2 -0.6
2019-Dec-13 01:39 107 -0.6
2019-Dec-13 01:29 107 0 gusting 0 -0.0
2019-Dec-13 01:19 085 0 gusting 4 -0.0
2019-Dec-13 01:09 119 1 gusting 4 -0.0
2019-Dec-13 00:59 088 2 gusting 2 -0.0
2019-Dec-13 00:49 113 1 gusting 1 -0.0
2019-Dec-13 00:39 099 0 gusting 0 -0.0
2019-Dec-13 00:29 112 0 gusting 0 -0.0
2019-Dec-13 00:19 070 1 gusting 3 0.6
2019-Dec-13 00:09 114 1 gusting 3 0.6
2019-Dec-12 23:59 110 1 gusting 2 0.6
2019-Dec-12 23:49 092 1 gusting 1 0.6
2019-Dec-12 23:39 084 0 gusting 0 0.6
2019-Dec-12 23:29 109 0 gusting 1 0.6
2019-Dec-12 23:19 095 0 gusting 1 -0.0
2019-Dec-12 23:09 095 -0.0
2019-Dec-12 22:59 095 0 gusting 0 -0.6
2019-Dec-12 22:49 095 -0.0
2019-Dec-12 22:39 095 0.6
2019-Dec-12 22:29 095 0.6
2019-Dec-12 22:19 095 1 gusting 1 1.7
2019-Dec-12 22:10 125 0 gusting 1 1.7
2019-Dec-12 21:59 126 2 gusting 2 2.2
2019-Dec-12 21:49 108 0 gusting 1 2.2
2019-Dec-12 21:39 094 1 gusting 2 2.8
2019-Dec-12 21:29 103 2 gusting 2 2.8
2019-Dec-12 21:19 114 1 gusting 2 3.3
2019-Dec-12 21:09 114 1 gusting 2 3.9
2019-Dec-12 20:59 065 2 gusting 6 3.9
2019-Dec-12 20:49 178 1 gusting 3 3.9
2019-Dec-12 20:39 145 3 gusting 6 3.9
2019-Dec-12 20:29 099 2 gusting 6 3.9
2019-Dec-12 20:19 054 3.9
2019-Dec-12 20:09 070 1 gusting 4 3.9
2019-Dec-12 19:59 087 2 gusting 6 4.4
2019-Dec-12 19:49 029 3 gusting 6 3.9
2019-Dec-12 19:39 103 4.4
2019-Dec-12 19:29 123 3 gusting 6 3.9
2019-Dec-12 19:19 120 6 gusting 6 3.9
2019-Dec-12 19:09 166 2 gusting 5 3.9
2019-Dec-12 18:59 141 2 gusting 5 4.4
2019-Dec-12 18:49 094 2 gusting 6 3.9
2019-Dec-12 18:39 157 2 gusting 4 3.3
2019-Dec-12 18:29 167 2 gusting 3 3.9
2019-Dec-12 18:19 108 3 gusting 4 3.3
2019-Dec-12 18:09 165 1 gusting 3 3.3
2019-Dec-12 17:59 025 0 gusting 2 2.8
2019-Dec-12 17:49 235 1 gusting 1 3.3
2019-Dec-12 17:39 197 0 gusting 0 2.8
2019-Dec-12 17:29 335 2 gusting 4 2.8
2019-Dec-12 17:19 047 2 gusting 4 2.2
2019-Dec-12 17:09 143 0 gusting 4 2.8
2019-Dec-12 16:59 199 3 gusting 3 2.8
2019-Dec-12 16:49 135 2 gusting 4 2.2
2019-Dec-12 16:39 083 1 gusting 4 1.7
2019-Dec-12 16:29 035 1 gusting 2 1.7
2019-Dec-12 16:19 033 0 gusting 3 1.1
2019-Dec-12 16:09 047 0 gusting 2 1.1